sensor_id;sensor_type;location;lat;lon;timestamp;P1;durP1;ratioP1;P2;durP2;ratioP2
18669;SDS011;9464;44.918;9.670;2023-07-20T00:01:55;5.80;;;3.60;;
18669;SDS011;9464;44.918;9.670;2023-07-20T00:04:24;8.20;;;3.92;;
18669;SDS011;9464;44.918;9.670;2023-07-20T00:06:52;8.15;;;3.78;;
18669;SDS011;9464;44.918;9.670;2023-07-20T00:09:22;7.65;;;4.20;;
18669;SDS011;9464;44.918;9.670;2023-07-20T00:11:51;13.05;;;3.55;;
18669;SDS011;9464;44.918;9.670;2023-07-20T00:14:20;8.48;;;4.13;;
18669;SDS011;9464;44.918;9.670;2023-07-20T00:16:49;4.55;;;4.05;;
18669;SDS011;9464;44.918;9.670;2023-07-20T00:19:22;9.27;;;3.78;;
18669;SDS011;9464;44.918;9.670;2023-07-20T00:21:51;7.05;;;3.38;;
18669;SDS011;9464;44.918;9.670;2023-07-20T00:24:22;8.00;;;4.15;;
18669;SDS011;9464;44.918;9.670;2023-07-20T00:26:51;7.55;;;4.43;;
18669;SDS011;9464;44.918;9.670;2023-07-20T00:29:20;5.97;;;3.22;;
18669;SDS011;9464;44.918;9.670;2023-07-20T00:31:48;8.23;;;4.47;;
18669;SDS011;9464;44.918;9.670;2023-07-20T00:34:17;10.57;;;2.67;;
18669;SDS011;9464;44.918;9.670;2023-07-20T00:36:46;10.55;;;3.30;;
18669;SDS011;9464;44.918;9.670;2023-07-20T00:39:15;7.75;;;2.83;;
18669;SDS011;9464;44.918;9.670;2023-07-20T00:41:45;6.32;;;2.85;;
18669;SDS011;9464;44.918;9.670;2023-07-20T00:44:13;10.75;;;2.42;;
18669;SDS011;9464;44.918;9.670;2023-07-20T00:46:42;6.85;;;2.58;;
18669;SDS011;9464;44.918;9.670;2023-07-20T00:49:10;5.60;;;2.13;;
18669;SDS011;9464;44.918;9.670;2023-07-20T00:51:39;3.92;;;2.35;;
18669;SDS011;9464;44.918;9.670;2023-07-20T00:54:08;3.97;;;2.22;;
18669;SDS011;9464;44.918;9.670;2023-07-20T00:56:36;6.78;;;2.75;;
18669;SDS011;9464;44.918;9.670;2023-07-20T00:59:06;4.75;;;2.20;;
18669;SDS011;9464;44.918;9.670;2023-07-20T01:01:35;16.05;;;2.58;;
18669;SDS011;9464;44.918;9.670;2023-07-20T01:04:04;7.32;;;2.28;;
18669;SDS011;9464;44.918;9.670;2023-07-20T01:06:35;3.05;;;2.15;;
18669;SDS011;9464;44.918;9.670;2023-07-20T01:09:07;9.13;;;2.53;;
18669;SDS011;9464;44.918;9.670;2023-07-20T01:11:38;6.32;;;2.00;;
18669;SDS011;9464;44.918;9.670;2023-07-20T01:14:08;5.10;;;2.17;;
18669;SDS011;9464;44.918;9.670;2023-07-20T01:16:37;5.90;;;2.22;;
18669;SDS011;9464;44.918;9.670;2023-07-20T01:19:06;3.35;;;2.15;;
18669;SDS011;9464;44.918;9.670;2023-07-20T01:21:37;4.10;;;1.85;;
18669;SDS011;9464;44.918;9.670;2023-07-20T01:27:00;2.03;;;1.73;;
18669;SDS011;9464;44.918;9.670;2023-07-20T01:29:43;3.05;;;1.98;;
18669;SDS011;9464;44.918;9.670;2023-07-20T01:32:17;7.13;;;2.42;;
18669;SDS011;9464;44.918;9.670;2023-07-20T01:34:47;4.80;;;2.03;;
18669;SDS011;9464;44.918;9.670;2023-07-20T01:37:17;8.38;;;2.00;;
18669;SDS011;9464;44.918;9.670;2023-07-20T01:39:46;4.65;;;2.03;;
18669;SDS011;9464;44.918;9.670;2023-07-20T01:42:15;4.40;;;1.80;;
18669;SDS011;9464;44.918;9.670;2023-07-20T01:44:43;3.70;;;2.08;;
18669;SDS011;9464;44.918;9.670;2023-07-20T01:47:12;3.38;;;1.70;;
18669;SDS011;9464;44.918;9.670;2023-07-20T01:49:42;2.83;;;1.98;;
18669;SDS011;9464;44.918;9.670;2023-07-20T01:52:11;3.55;;;1.88;;
18669;SDS011;9464;44.918;9.670;2023-07-20T01:54:39;5.10;;;1.88;;
18669;SDS011;9464;44.918;9.670;2023-07-20T01:57:08;2.08;;;1.55;;
18669;SDS011;9464;44.918;9.670;2023-07-20T01:59:36;4.20;;;2.20;;
18669;SDS011;9464;44.918;9.670;2023-07-20T02:02:05;3.97;;;2.03;;
18669;SDS011;9464;44.918;9.670;2023-07-20T02:04:33;2.70;;;1.90;;
18669;SDS011;9464;44.918;9.670;2023-07-20T02:07:04;4.70;;;2.30;;
18669;SDS011;9464;44.918;9.670;2023-07-20T02:09:32;2.90;;;1.70;;
18669;SDS011;9464;44.918;9.670;2023-07-20T02:12:01;4.32;;;2.08;;
18669;SDS011;9464;44.918;9.670;2023-07-20T02:14:29;2.67;;;1.80;;
18669;SDS011;9464;44.918;9.670;2023-07-20T02:16:58;5.82;;;2.72;;
18669;SDS011;9464;44.918;9.670;2023-07-20T02:19:27;6.45;;;2.35;;
18669;SDS011;9464;44.918;9.670;2023-07-20T02:21:56;5.93;;;2.08;;
18669;SDS011;9464;44.918;9.670;2023-07-20T02:24:26;3.97;;;2.00;;
18669;SDS011;9464;44.918;9.670;2023-07-20T02:26:55;3.85;;;2.05;;
18669;SDS011;9464;44.918;9.670;2023-07-20T02:29:24;3.50;;;2.10;;
18669;SDS011;9464;44.918;9.670;2023-07-20T02:31:52;2.92;;;2.15;;
18669;SDS011;9464;44.918;9.670;2023-07-20T02:34:21;7.38;;;2.22;;
18669;SDS011;9464;44.918;9.670;2023-07-20T02:36:49;2.13;;;1.80;;
18669;SDS011;9464;44.918;9.670;2023-07-20T02:39:18;4.20;;;2.35;;
18669;SDS011;9464;44.918;9.670;2023-07-20T02:41:48;2.88;;;2.05;;
18669;SDS011;9464;44.918;9.670;2023-07-20T02:44:16;2.70;;;2.00;;
18669;SDS011;9464;44.918;9.670;2023-07-20T02:46:45;3.92;;;2.05;;
18669;SDS011;9464;44.918;9.670;2023-07-20T02:49:16;3.47;;;2.17;;
18669;SDS011;9464;44.918;9.670;2023-07-20T02:51:44;1.45;;;1.35;;
18669;SDS011;9464;44.918;9.670;2023-07-20T02:54:12;7.20;;;2.15;;
18669;SDS011;9464;44.918;9.670;2023-07-20T02:56:41;2.90;;;1.83;;
18669;SDS011;9464;44.918;9.670;2023-07-20T02:59:11;3.63;;;1.77;;
18669;SDS011;9464;44.918;9.670;2023-07-20T03:01:39;9.00;;;2.13;;
18669;SDS011;9464;44.918;9.670;2023-07-20T03:04:08;4.07;;;2.20;;
18669;SDS011;9464;44.918;9.670;2023-07-20T03:06:37;4.13;;;2.10;;
18669;SDS011;9464;44.918;9.670;2023-07-20T03:09:06;4.28;;;2.00;;
18669;SDS011;9464;44.918;9.670;2023-07-20T03:11:35;6.28;;;2.05;;
18669;SDS011;9464;44.918;9.670;2023-07-20T03:14:04;2.35;;;1.92;;
18669;SDS011;9464;44.918;9.670;2023-07-20T03:16:34;3.95;;;2.13;;
18669;SDS011;9464;44.918;9.670;2023-07-20T03:19:02;6.10;;;1.63;;
18669;SDS011;9464;44.918;9.670;2023-07-20T03:21:31;3.88;;;1.67;;
18669;SDS011;9464;44.918;9.670;2023-07-20T03:23:59;3.70;;;1.58;;
18669;SDS011;9464;44.918;9.670;2023-07-20T03:26:28;3.72;;;2.17;;
18669;SDS011;9464;44.918;9.670;2023-07-20T03:28:56;4.72;;;2.10;;
18669;SDS011;9464;44.918;9.670;2023-07-20T03:31:25;6.38;;;2.03;;
18669;SDS011;9464;44.918;9.670;2023-07-20T03:33:55;7.88;;;1.85;;
18669;SDS011;9464;44.918;9.670;2023-07-20T03:36:23;4.50;;;1.70;;
18669;SDS011;9464;44.918;9.670;2023-07-20T03:38:52;7.13;;;2.05;;
18669;SDS011;9464;44.918;9.670;2023-07-20T03:41:20;4.78;;;2.50;;
18669;SDS011;9464;44.918;9.670;2023-07-20T03:43:49;7.63;;;2.17;;
18669;SDS011;9464;44.918;9.670;2023-07-20T03:46:18;4.07;;;2.20;;
18669;SDS011;9464;44.918;9.670;2023-07-20T03:48:47;8.20;;;2.50;;
18669;SDS011;9464;44.918;9.670;2023-07-20T03:51:17;6.60;;;2.40;;
18669;SDS011;9464;44.918;9.670;2023-07-20T03:53:45;8.68;;;1.55;;
18669;SDS011;9464;44.918;9.670;2023-07-20T03:56:14;3.60;;;2.20;;
18669;SDS011;9464;44.918;9.670;2023-07-20T03:58:42;4.25;;;2.03;;
18669;SDS011;9464;44.918;9.670;2023-07-20T04:01:11;2.80;;;1.90;;
18669;SDS011;9464;44.918;9.670;2023-07-20T04:03:40;3.20;;;2.08;;
18669;SDS011;9464;44.918;9.670;2023-07-20T04:06:11;3.42;;;2.03;;
18669;SDS011;9464;44.918;9.670;2023-07-20T04:08:42;3.08;;;2.00;;
18669;SDS011;9464;44.918;9.670;2023-07-20T04:11:10;2.33;;;2.13;;
18669;SDS011;9464;44.918;9.670;2023-07-20T04:13:39;2.53;;;2.13;;
18669;SDS011;9464;44.918;9.670;2023-07-20T04:16:08;4.25;;;2.20;;
18669;SDS011;9464;44.918;9.670;2023-07-20T04:18:36;6.50;;;2.75;;
18669;SDS011;9464;44.918;9.670;2023-07-20T04:21:05;6.15;;;2.20;;
18669;SDS011;9464;44.918;9.670;2023-07-20T04:23:33;4.50;;;2.38;;
18669;SDS011;9464;44.918;9.670;2023-07-20T04:26:04;4.03;;;1.98;;
18669;SDS011;9464;44.918;9.670;2023-07-20T04:28:33;2.97;;;2.15;;
18669;SDS011;9464;44.918;9.670;2023-07-20T04:31:10;4.60;;;2.35;;
18669;SDS011;9464;44.918;9.670;2023-07-20T04:33:40;4.38;;;2.40;;
18669;SDS011;9464;44.918;9.670;2023-07-20T04:36:08;6.43;;;2.03;;
18669;SDS011;9464;44.918;9.670;2023-07-20T04:38:37;4.25;;;2.13;;
18669;SDS011;9464;44.918;9.670;2023-07-20T04:41:07;2.90;;;1.95;;
18669;SDS011;9464;44.918;9.670;2023-07-20T04:43:35;3.38;;;2.15;;
18669;SDS011;9464;44.918;9.670;2023-07-20T04:46:03;3.80;;;1.95;;
18669;SDS011;9464;44.918;9.670;2023-07-20T04:48:32;5.95;;;2.45;;
18669;SDS011;9464;44.918;9.670;2023-07-20T04:51:01;3.22;;;2.28;;
18669;SDS011;9464;44.918;9.670;2023-07-20T04:53:29;5.97;;;2.50;;
18669;SDS011;9464;44.918;9.670;2023-07-20T04:55:58;5.93;;;2.38;;
18669;SDS011;9464;44.918;9.670;2023-07-20T04:58:28;4.82;;;2.22;;
18669;SDS011;9464;44.918;9.670;2023-07-20T05:00:57;6.78;;;2.53;;
18669;SDS011;9464;44.918;9.670;2023-07-20T05:03:25;5.45;;;2.38;;
18669;SDS011;9464;44.918;9.670;2023-07-20T05:05:54;3.70;;;2.63;;
18669;SDS011;9464;44.918;9.670;2023-07-20T05:08:23;3.53;;;2.55;;
18669;SDS011;9464;44.918;9.670;2023-07-20T05:10:51;4.97;;;2.60;;
18669;SDS011;9464;44.918;9.670;2023-07-20T05:13:20;4.90;;;2.58;;
18669;SDS011;9464;44.918;9.670;2023-07-20T05:15:52;6.45;;;2.63;;
18669;SDS011;9464;44.918;9.670;2023-07-20T05:18:21;3.97;;;2.35;;
18669;SDS011;9464;44.918;9.670;2023-07-20T05:20:49;4.88;;;2.42;;
18669;SDS011;9464;44.918;9.670;2023-07-20T05:23:18;2.15;;;1.90;;
18669;SDS011;9464;44.918;9.670;2023-07-20T05:25:47;4.18;;;2.53;;
18669;SDS011;9464;44.918;9.670;2023-07-20T05:28:16;4.72;;;2.35;;
18669;SDS011;9464;44.918;9.670;2023-07-20T05:30:44;7.15;;;2.80;;
18669;SDS011;9464;44.918;9.670;2023-07-20T05:33:14;3.28;;;2.65;;
18669;SDS011;9464;44.918;9.670;2023-07-20T05:35:43;6.07;;;2.65;;
18669;SDS011;9464;44.918;9.670;2023-07-20T05:38:11;5.00;;;3.08;;
18669;SDS011;9464;44.918;9.670;2023-07-20T05:40:40;4.50;;;2.55;;
18669;SDS011;9464;44.918;9.670;2023-07-20T05:43:09;6.38;;;2.58;;
18669;SDS011;9464;44.918;9.670;2023-07-20T05:45:38;4.07;;;2.38;;
18669;SDS011;9464;44.918;9.670;2023-07-20T05:48:09;5.32;;;2.85;;
18669;SDS011;9464;44.918;9.670;2023-07-20T05:50:43;6.20;;;2.83;;
18669;SDS011;9464;44.918;9.670;2023-07-20T05:53:11;4.20;;;3.15;;
18669;SDS011;9464;44.918;9.670;2023-07-20T05:55:40;6.05;;;2.88;;
18669;SDS011;9464;44.918;9.670;2023-07-20T05:58:08;4.78;;;2.20;;
18669;SDS011;9464;44.918;9.670;2023-07-20T06:00:37;4.70;;;2.42;;
18669;SDS011;9464;44.918;9.670;2023-07-20T06:03:06;3.83;;;2.53;;
18669;SDS011;9464;44.918;9.670;2023-07-20T06:05:35;8.23;;;2.72;;
18669;SDS011;9464;44.918;9.670;2023-07-20T06:08:05;7.65;;;2.55;;
18669;SDS011;9464;44.918;9.670;2023-07-20T06:10:33;13.38;;;2.17;;
18669;SDS011;9464;44.918;9.670;2023-07-20T06:13:02;3.22;;;2.20;;
18669;SDS011;9464;44.918;9.670;2023-07-20T06:15:31;6.07;;;2.42;;
18669;SDS011;9464;44.918;9.670;2023-07-20T06:18:01;3.72;;;2.22;;
18669;SDS011;9464;44.918;9.670;2023-07-20T06:20:30;5.93;;;2.58;;
18669;SDS011;9464;44.918;9.670;2023-07-20T06:22:59;6.57;;;2.72;;
18669;SDS011;9464;44.918;9.670;2023-07-20T06:25:29;9.57;;;2.75;;
18669;SDS011;9464;44.918;9.670;2023-07-20T06:27:57;9.30;;;3.15;;
18669;SDS011;9464;44.918;9.670;2023-07-20T06:30:26;4.88;;;2.42;;
18669;SDS011;9464;44.918;9.670;2023-07-20T06:32:54;5.45;;;3.10;;
18669;SDS011;9464;44.918;9.670;2023-07-20T06:35:23;8.80;;;2.50;;
18669;SDS011;9464;44.918;9.670;2023-07-20T06:37:52;6.80;;;2.65;;
18669;SDS011;9464;44.918;9.670;2023-07-20T06:40:21;4.75;;;2.67;;
18669;SDS011;9464;44.918;9.670;2023-07-20T06:42:53;3.22;;;2.30;;
18669;SDS011;9464;44.918;9.670;2023-07-20T06:45:25;4.25;;;2.83;;
18669;SDS011;9464;44.918;9.670;2023-07-20T06:47:54;8.27;;;3.35;;
18669;SDS011;9464;44.918;9.670;2023-07-20T06:50:22;6.43;;;2.72;;
18669;SDS011;9464;44.918;9.670;2023-07-20T06:52:53;5.50;;;2.78;;
18669;SDS011;9464;44.918;9.670;2023-07-20T06:55:24;4.00;;;2.72;;
18669;SDS011;9464;44.918;9.670;2023-07-20T06:57:59;5.22;;;2.75;;
18669;SDS011;9464;44.918;9.670;2023-07-20T07:00:32;7.43;;;3.00;;
18669;SDS011;9464;44.918;9.670;2023-07-20T07:03:01;5.00;;;2.80;;
18669;SDS011;9464;44.918;9.670;2023-07-20T07:05:30;4.85;;;2.85;;
18669;SDS011;9464;44.918;9.670;2023-07-20T07:08:02;4.60;;;2.50;;
18669;SDS011;9464;44.918;9.670;2023-07-20T07:10:31;3.80;;;2.20;;
18669;SDS011;9464;44.918;9.670;2023-07-20T07:13:01;6.18;;;2.40;;
18669;SDS011;9464;44.918;9.670;2023-07-20T07:15:31;3.85;;;2.55;;
18669;SDS011;9464;44.918;9.670;2023-07-20T07:18:00;5.00;;;3.00;;
18669;SDS011;9464;44.918;9.670;2023-07-20T07:20:30;3.13;;;2.35;;
18669;SDS011;9464;44.918;9.670;2023-07-20T07:22:58;4.03;;;2.33;;
18669;SDS011;9464;44.918;9.670;2023-07-20T07:25:27;4.45;;;2.38;;
18669;SDS011;9464;44.918;9.670;2023-07-20T07:27:56;6.97;;;2.38;;
18669;SDS011;9464;44.918;9.670;2023-07-20T07:30:26;7.68;;;2.90;;
18669;SDS011;9464;44.918;9.670;2023-07-20T07:32:56;6.30;;;2.05;;
18669;SDS011;9464;44.918;9.670;2023-07-20T07:35:25;6.20;;;2.60;;
18669;SDS011;9464;44.918;9.670;2023-07-20T07:37:53;3.65;;;2.35;;
18669;SDS011;9464;44.918;9.670;2023-07-20T07:40:42;4.35;;;2.30;;
18669;SDS011;9464;44.918;9.670;2023-07-20T07:43:10;5.93;;;3.20;;
18669;SDS011;9464;44.918;9.670;2023-07-20T07:45:41;3.78;;;2.35;;
18669;SDS011;9464;44.918;9.670;2023-07-20T07:48:10;3.53;;;2.08;;
18669;SDS011;9464;44.918;9.670;2023-07-20T07:50:39;3.47;;;2.35;;
18669;SDS011;9464;44.918;9.670;2023-07-20T07:53:08;2.47;;;1.80;;
18669;SDS011;9464;44.918;9.670;2023-07-20T07:55:36;3.70;;;2.53;;
18669;SDS011;9464;44.918;9.670;2023-07-20T07:58:05;5.85;;;2.45;;
18669;SDS011;9464;44.918;9.670;2023-07-20T08:00:34;12.15;;;3.03;;
18669;SDS011;9464;44.918;9.670;2023-07-20T08:03:05;7.18;;;2.65;;
18669;SDS011;9464;44.918;9.670;2023-07-20T08:05:35;7.10;;;2.58;;
18669;SDS011;9464;44.918;9.670;2023-07-20T08:08:04;5.30;;;2.83;;
18669;SDS011;9464;44.918;9.670;2023-07-20T08:10:32;6.50;;;2.30;;
18669;SDS011;9464;44.918;9.670;2023-07-20T08:13:01;4.88;;;2.63;;
18669;SDS011;9464;44.918;9.670;2023-07-20T08:15:30;5.10;;;2.53;;
18669;SDS011;9464;44.918;9.670;2023-07-20T08:17:58;4.65;;;2.65;;
18669;SDS011;9464;44.918;9.670;2023-07-20T08:20:28;9.60;;;2.40;;
18669;SDS011;9464;44.918;9.670;2023-07-20T08:22:58;4.18;;;2.30;;
18669;SDS011;9464;44.918;9.670;2023-07-20T08:25:27;3.70;;;2.58;;
18669;SDS011;9464;44.918;9.670;2023-07-20T08:27:55;3.65;;;2.53;;
18669;SDS011;9464;44.918;9.670;2023-07-20T08:30:24;5.65;;;2.50;;
18669;SDS011;9464;44.918;9.670;2023-07-20T08:32:52;3.38;;;2.33;;
18669;SDS011;9464;44.918;9.670;2023-07-20T08:35:21;4.80;;;2.85;;
18669;SDS011;9464;44.918;9.670;2023-07-20T08:37:54;4.40;;;2.65;;
18669;SDS011;9464;44.918;9.670;2023-07-20T08:40:24;3.50;;;2.25;;
18669;SDS011;9464;44.918;9.670;2023-07-20T08:42:52;4.57;;;2.63;;
18669;SDS011;9464;44.918;9.670;2023-07-20T08:45:22;6.53;;;2.92;;
18669;SDS011;9464;44.918;9.670;2023-07-20T08:47:54;5.22;;;2.35;;
18669;SDS011;9464;44.918;9.670;2023-07-20T08:50:24;3.65;;;2.30;;
18669;SDS011;9464;44.918;9.670;2023-07-20T08:52:53;4.15;;;2.75;;
18669;SDS011;9464;44.918;9.670;2023-07-20T08:55:23;4.05;;;2.28;;
18669;SDS011;9464;44.918;9.670;2023-07-20T08:57:52;6.35;;;2.60;;
18669;SDS011;9464;44.918;9.670;2023-07-20T09:00:21;7.47;;;2.97;;
18669;SDS011;9464;44.918;9.670;2023-07-20T09:02:52;3.70;;;2.10;;
18669;SDS011;9464;44.918;9.670;2023-07-20T09:05:21;5.63;;;3.10;;
18669;SDS011;9464;44.918;9.670;2023-07-20T09:07:52;5.88;;;2.60;;
18669;SDS011;9464;44.918;9.670;2023-07-20T09:10:23;11.25;;;3.38;;
18669;SDS011;9464;44.918;9.670;2023-07-20T09:12:51;3.17;;;2.25;;
18669;SDS011;9464;44.918;9.670;2023-07-20T09:15:22;3.50;;;2.65;;
18669;SDS011;9464;44.918;9.670;2023-07-20T09:17:50;3.15;;;2.53;;
18669;SDS011;9464;44.918;9.670;2023-07-20T09:20:20;5.00;;;2.83;;
18669;SDS011;9464;44.918;9.670;2023-07-20T09:22:50;2.47;;;2.28;;
18669;SDS011;9464;44.918;9.670;2023-07-20T09:25:19;6.78;;;3.42;;
18669;SDS011;9464;44.918;9.670;2023-07-20T09:27:52;4.28;;;2.80;;
18669;SDS011;9464;44.918;9.670;2023-07-20T09:30:21;3.67;;;2.50;;
18669;SDS011;9464;44.918;9.670;2023-07-20T09:32:56;2.85;;;2.60;;
18669;SDS011;9464;44.918;9.670;2023-07-20T09:35:25;3.10;;;2.78;;
18669;SDS011;9464;44.918;9.670;2023-07-20T09:38:07;2.50;;;2.17;;
18669;SDS011;9464;44.918;9.670;2023-07-20T09:40:39;6.28;;;2.55;;
18669;SDS011;9464;44.918;9.670;2023-07-20T09:43:12;6.43;;;2.60;;
18669;SDS011;9464;44.918;9.670;2023-07-20T09:45:44;4.00;;;2.90;;
18669;SDS011;9464;44.918;9.670;2023-07-20T09:48:15;6.55;;;2.63;;
18669;SDS011;9464;44.918;9.670;2023-07-20T09:50:51;4.63;;;2.65;;
18669;SDS011;9464;44.918;9.670;2023-07-20T09:53:20;3.88;;;2.70;;
18669;SDS011;9464;44.918;9.670;2023-07-20T09:55:48;3.83;;;2.60;;
18669;SDS011;9464;44.918;9.670;2023-07-20T09:58:18;4.93;;;2.63;;
18669;SDS011;9464;44.918;9.670;2023-07-20T10:00:48;4.53;;;2.97;;
18669;SDS011;9464;44.918;9.670;2023-07-20T10:03:20;3.78;;;2.58;;
18669;SDS011;9464;44.918;9.670;2023-07-20T10:05:51;5.95;;;2.67;;
18669;SDS011;9464;44.918;9.670;2023-07-20T10:08:20;7.32;;;3.28;;
18669;SDS011;9464;44.918;9.670;2023-07-20T10:10:54;9.25;;;2.95;;
18669;SDS011;9464;44.918;9.670;2023-07-20T10:13:27;5.82;;;2.90;;
18669;SDS011;9464;44.918;9.670;2023-07-20T10:15:58;4.70;;;3.05;;
18669;SDS011;9464;44.918;9.670;2023-07-20T10:18:30;3.45;;;2.45;;
18669;SDS011;9464;44.918;9.670;2023-07-20T10:20:59;4.50;;;2.65;;
18669;SDS011;9464;44.918;9.670;2023-07-20T10:23:31;12.20;;;3.25;;
18669;SDS011;9464;44.918;9.670;2023-07-20T10:26:01;4.65;;;2.83;;
18669;SDS011;9464;44.918;9.670;2023-07-20T10:28:31;9.20;;;2.80;;
18669;SDS011;9464;44.918;9.670;2023-07-20T10:30:59;5.32;;;3.20;;
18669;SDS011;9464;44.918;9.670;2023-07-20T10:33:28;4.85;;;2.85;;
18669;SDS011;9464;44.918;9.670;2023-07-20T10:36:02;4.88;;;3.00;;
18669;SDS011;9464;44.918;9.670;2023-07-20T10:38:37;3.55;;;2.90;;
18669;SDS011;9464;44.918;9.670;2023-07-20T10:41:16;5.70;;;3.22;;
18669;SDS011;9464;44.918;9.670;2023-07-20T10:43:47;9.30;;;3.50;;
18669;SDS011;9464;44.918;9.670;2023-07-20T10:49:01;6.10;;;2.30;;
18669;SDS011;9464;44.918;9.670;2023-07-20T10:51:30;4.32;;;2.75;;
18669;SDS011;9464;44.918;9.670;2023-07-20T10:53:59;3.42;;;2.47;;
18669;SDS011;9464;44.918;9.670;2023-07-20T10:56:30;6.78;;;2.60;;
18669;SDS011;9464;44.918;9.670;2023-07-20T10:59:00;2.70;;;2.50;;
18669;SDS011;9464;44.918;9.670;2023-07-20T11:01:29;9.02;;;2.95;;
18669;SDS011;9464;44.918;9.670;2023-07-20T11:03:59;3.30;;;2.67;;
18669;SDS011;9464;44.918;9.670;2023-07-20T11:06:31;3.00;;;2.65;;
18669;SDS011;9464;44.918;9.670;2023-07-20T11:09:04;4.60;;;3.10;;
18669;SDS011;9464;44.918;9.670;2023-07-20T11:11:35;5.95;;;2.88;;
18669;SDS011;9464;44.918;9.670;2023-07-20T11:14:05;12.40;;;2.90;;
18669;SDS011;9464;44.918;9.670;2023-07-20T11:16:39;5.95;;;3.15;;
18669;SDS011;9464;44.918;9.670;2023-07-20T11:19:13;6.28;;;3.50;;
18669;SDS011;9464;44.918;9.670;2023-07-20T11:22:03;6.10;;;3.17;;
18669;SDS011;9464;44.918;9.670;2023-07-20T11:24:34;3.50;;;2.55;;
18669;SDS011;9464;44.918;9.670;2023-07-20T11:27:04;4.53;;;2.90;;
18669;SDS011;9464;44.918;9.670;2023-07-20T11:29:34;4.07;;;2.97;;
18669;SDS011;9464;44.918;9.670;2023-07-20T11:32:03;4.10;;;3.08;;
18669;SDS011;9464;44.918;9.670;2023-07-20T11:34:33;6.57;;;3.10;;
18669;SDS011;9464;44.918;9.670;2023-07-20T11:37:02;10.15;;;3.20;;
18669;SDS011;9464;44.918;9.670;2023-07-20T11:39:33;7.15;;;3.40;;
18669;SDS011;9464;44.918;9.670;2023-07-20T11:42:02;4.75;;;2.65;;
18669;SDS011;9464;44.918;9.670;2023-07-20T11:44:31;5.22;;;2.80;;
18669;SDS011;9464;44.918;9.670;2023-07-20T11:47:01;5.47;;;3.00;;
18669;SDS011;9464;44.918;9.670;2023-07-20T11:49:30;4.35;;;2.92;;
18669;SDS011;9464;44.918;9.670;2023-07-20T11:52:03;4.72;;;3.13;;
18669;SDS011;9464;44.918;9.670;2023-07-20T11:54:32;6.05;;;3.55;;
18669;SDS011;9464;44.918;9.670;2023-07-20T11:57:01;5.93;;;2.95;;
18669;SDS011;9464;44.918;9.670;2023-07-20T11:59:30;6.78;;;3.67;;
18669;SDS011;9464;44.918;9.670;2023-07-20T12:02:02;6.80;;;3.30;;
18669;SDS011;9464;44.918;9.670;2023-07-20T12:04:31;3.70;;;2.80;;
18669;SDS011;9464;44.918;9.670;2023-07-20T12:06:59;7.95;;;3.47;;
18669;SDS011;9464;44.918;9.670;2023-07-20T12:09:29;7.13;;;3.40;;
18669;SDS011;9464;44.918;9.670;2023-07-20T12:12:18;4.32;;;2.80;;
18669;SDS011;9464;44.918;9.670;2023-07-20T12:14:47;4.85;;;3.05;;
18669;SDS011;9464;44.918;9.670;2023-07-20T12:17:17;4.80;;;2.60;;
18669;SDS011;9464;44.918;9.670;2023-07-20T12:19:46;4.47;;;3.17;;
18669;SDS011;9464;44.918;9.670;2023-07-20T12:22:14;5.25;;;3.00;;
18669;SDS011;9464;44.918;9.670;2023-07-20T12:24:43;4.82;;;3.10;;
18669;SDS011;9464;44.918;9.670;2023-07-20T12:27:13;9.23;;;3.33;;
18669;SDS011;9464;44.918;9.670;2023-07-20T12:29:44;5.40;;;2.67;;
18669;SDS011;9464;44.918;9.670;2023-07-20T12:32:13;6.32;;;3.05;;
18669;SDS011;9464;44.918;9.670;2023-07-20T12:34:43;5.88;;;3.30;;
18669;SDS011;9464;44.918;9.670;2023-07-20T12:37:11;5.25;;;3.10;;
18669;SDS011;9464;44.918;9.670;2023-07-20T12:39:40;7.85;;;3.53;;
18669;SDS011;9464;44.918;9.670;2023-07-20T12:42:12;5.05;;;2.70;;
18669;SDS011;9464;44.918;9.670;2023-07-20T12:44:43;7.22;;;2.90;;
18669;SDS011;9464;44.918;9.670;2023-07-20T12:47:12;7.25;;;3.88;;
18669;SDS011;9464;44.918;9.670;2023-07-20T12:49:41;6.15;;;3.03;;
18669;SDS011;9464;44.918;9.670;2023-07-20T12:52:13;5.47;;;3.08;;
18669;SDS011;9464;44.918;9.670;2023-07-20T12:54:41;4.80;;;2.83;;
18669;SDS011;9464;44.918;9.670;2023-07-20T12:57:10;6.93;;;3.20;;
18669;SDS011;9464;44.918;9.670;2023-07-20T12:59:38;6.93;;;2.95;;
18669;SDS011;9464;44.918;9.670;2023-07-20T13:02:07;12.93;;;3.72;;
18669;SDS011;9464;44.918;9.670;2023-07-20T13:04:35;6.95;;;3.53;;
18669;SDS011;9464;44.918;9.670;2023-07-20T13:07:04;7.38;;;2.70;;
18669;SDS011;9464;44.918;9.670;2023-07-20T13:09:37;5.60;;;3.13;;
18669;SDS011;9464;44.918;9.670;2023-07-20T13:12:06;4.78;;;3.35;;
18669;SDS011;9464;44.918;9.670;2023-07-20T13:14:35;3.03;;;2.50;;
18669;SDS011;9464;44.918;9.670;2023-07-20T13:17:03;7.88;;;3.42;;
18669;SDS011;9464;44.918;9.670;2023-07-20T13:19:32;4.50;;;3.10;;
18669;SDS011;9464;44.918;9.670;2023-07-20T13:22:01;6.60;;;3.60;;
18669;SDS011;9464;44.918;9.670;2023-07-20T13:24:29;7.88;;;3.47;;
18669;SDS011;9464;44.918;9.670;2023-07-20T13:26:59;7.90;;;3.40;;
18669;SDS011;9464;44.918;9.670;2023-07-20T13:29:28;6.07;;;3.05;;
18669;SDS011;9464;44.918;9.670;2023-07-20T13:31:57;5.95;;;3.25;;
18669;SDS011;9464;44.918;9.670;2023-07-20T13:34:25;5.05;;;3.47;;
18669;SDS011;9464;44.918;9.670;2023-07-20T13:36:57;4.35;;;3.03;;
18669;SDS011;9464;44.918;9.670;2023-07-20T13:39:26;3.67;;;3.08;;
18669;SDS011;9464;44.918;9.670;2023-07-20T13:41:55;3.95;;;3.22;;
18669;SDS011;9464;44.918;9.670;2023-07-20T13:44:25;7.72;;;3.22;;
18669;SDS011;9464;44.918;9.670;2023-07-20T13:46:55;6.97;;;3.45;;
18669;SDS011;9464;44.918;9.670;2023-07-20T13:49:44;3.78;;;2.92;;
18669;SDS011;9464;44.918;9.670;2023-07-20T13:52:13;4.25;;;2.95;;
18669;SDS011;9464;44.918;9.670;2023-07-20T13:54:45;6.72;;;3.67;;
18669;SDS011;9464;44.918;9.670;2023-07-20T13:57:18;3.85;;;2.78;;
18669;SDS011;9464;44.918;9.670;2023-07-20T13:59:48;6.05;;;3.30;;
18669;SDS011;9464;44.918;9.670;2023-07-20T14:02:17;4.00;;;3.17;;
18669;SDS011;9464;44.918;9.670;2023-07-20T14:04:49;5.45;;;3.20;;
18669;SDS011;9464;44.918;9.670;2023-07-20T14:07:37;4.05;;;2.80;;
18669;SDS011;9464;44.918;9.670;2023-07-20T14:10:06;11.32;;;4.22;;
18669;SDS011;9464;44.918;9.670;2023-07-20T14:12:38;10.75;;;3.00;;
18669;SDS011;9464;44.918;9.670;2023-07-20T14:15:09;5.55;;;3.53;;
18669;SDS011;9464;44.918;9.670;2023-07-20T14:17:38;4.70;;;3.33;;
18669;SDS011;9464;44.918;9.670;2023-07-20T14:20:06;5.78;;;3.60;;
18669;SDS011;9464;44.918;9.670;2023-07-20T14:22:38;5.53;;;3.42;;
18669;SDS011;9464;44.918;9.670;2023-07-20T14:25:08;6.50;;;3.05;;
18669;SDS011;9464;44.918;9.670;2023-07-20T14:27:36;5.40;;;3.90;;
18669;SDS011;9464;44.918;9.670;2023-07-20T14:30:05;5.43;;;3.30;;
18669;SDS011;9464;44.918;9.670;2023-07-20T14:32:36;8.00;;;3.50;;
18669;SDS011;9464;44.918;9.670;2023-07-20T14:35:06;6.65;;;4.22;;
18669;SDS011;9464;44.918;9.670;2023-07-20T14:37:36;4.78;;;3.28;;
18669;SDS011;9464;44.918;9.670;2023-07-20T14:40:05;5.68;;;3.33;;
18669;SDS011;9464;44.918;9.670;2023-07-20T14:42:34;7.25;;;3.50;;
18669;SDS011;9464;44.918;9.670;2023-07-20T14:45:04;9.30;;;3.40;;
18669;SDS011;9464;44.918;9.670;2023-07-20T14:47:33;6.97;;;3.83;;
18669;SDS011;9464;44.918;9.670;2023-07-20T14:50:05;6.03;;;3.30;;
18669;SDS011;9464;44.918;9.670;2023-07-20T14:52:34;7.97;;;3.50;;
18669;SDS011;9464;44.918;9.670;2023-07-20T14:55:13;9.13;;;3.25;;
18669;SDS011;9464;44.918;9.670;2023-07-20T14:57:42;5.28;;;3.47;;
18669;SDS011;9464;44.918;9.670;2023-07-20T15:00:11;9.23;;;3.08;;
18669;SDS011;9464;44.918;9.670;2023-07-20T15:02:40;5.88;;;3.25;;
18669;SDS011;9464;44.918;9.670;2023-07-20T15:05:10;5.90;;;3.58;;
18669;SDS011;9464;44.918;9.670;2023-07-20T15:07:39;8.00;;;3.45;;
18669;SDS011;9464;44.918;9.670;2023-07-20T15:10:09;7.35;;;3.75;;
18669;SDS011;9464;44.918;9.670;2023-07-20T15:12:38;6.38;;;3.72;;
18669;SDS011;9464;44.918;9.670;2023-07-20T15:15:07;6.03;;;3.25;;
18669;SDS011;9464;44.918;9.670;2023-07-20T15:17:36;4.97;;;3.75;;
18669;SDS011;9464;44.918;9.670;2023-07-20T15:20:06;4.55;;;3.60;;
18669;SDS011;9464;44.918;9.670;2023-07-20T15:22:36;9.85;;;3.95;;